Time;durP1;ratioP1;P1;durP2;ratioP2;P2;SDS_P1;SDS_P2;PMS_P1;PMS_P2;Temp;Humidity;BMP_temperature;BMP_pressure;BME280_temperature;BME280_humidity;BME280_pressure;Samples;Min_cycle;Max_cycle;Signal;HPM_P1;HPM_P2
2022/12/05 00:00:51;;;;;;;62.30;35.53;;;2.90;99.90;;;;;;4986758;28;20176;-84
2022/12/05 00:03:18;;;;;;;63.73;35.97;;;2.90;99.90;;;;;;5004258;28;20183;-83
2022/12/05 00:05:43;;;;;;;65.37;34.33;;;3.00;99.90;;;;;;5000010;28;20186;-84
2022/12/05 00:08:11;;;;;;;63.47;34.73;;;3.00;99.90;;;;;;5000124;28;20179;-84
2022/12/05 00:10:38;;;;;;;63.00;32.97;;;2.90;99.90;;;;;;5000050;28;20233;-85
2022/12/05 00:13:39;;;;;;;64.10;36.07;;;3.10;99.90;;;;;;5005203;28;20183;-82
2022/12/05 00:16:10;;;;;;;65.60;33.93;;;3.20;99.90;;;;;;5009096;28;20173;-83
2022/12/05 00:18:36;;;;;;;64.47;35.13;;;3.00;99.90;;;;;;4995672;28;20159;-84
2022/12/05 00:21:04;;;;;;;56.23;32.10;;;3.00;99.90;;;;;;5002855;28;20672;-84
2022/12/05 00:23:29;;;;;;;60.13;33.83;;;3.00;99.90;;;;;;5002856;28;20205;-85
2022/12/05 00:26:00;;;;;;;66.13;33.07;;;3.10;99.90;;;;;;5002924;28;20644;-84
2022/12/05 00:28:25;;;;;;;62.17;33.87;;;3.10;99.90;;;;;;5007177;28;20183;-84
2022/12/05 00:30:51;;;;;;;59.57;32.80;;;3.10;99.90;;;;;;5006226;28;20207;-85
2022/12/05 00:33:17;;;;;;;59.70;32.03;;;3.20;99.90;;;;;;5001257;28;20190;-83
2022/12/05 00:35:43;;;;;;;61.67;34.07;;;3.20;99.90;;;;;;4984936;28;20206;-85
2022/12/05 00:38:08;;;;;;;56.40;32.10;;;3.10;99.90;;;;;;4967614;28;20624;-85
2022/12/05 00:40:36;;;;;;;52.33;30.07;;;3.10;99.90;;;;;;5000023;28;20198;-83
2022/12/05 00:43:01;;;;;;;60.00;32.77;;;3.20;99.90;;;;;;5001822;28;20182;-85
2022/12/05 00:45:28;;;;;;;54.03;28.13;;;3.00;99.90;;;;;;5000530;28;20546;-86
2022/12/05 00:47:54;;;;;;;51.93;29.33;;;3.00;99.90;;;;;;5001157;28;20179;-85
2022/12/05 00:50:20;;;;;;;55.47;28.87;;;3.00;99.90;;;;;;4999763;28;20285;-86
2022/12/05 00:52:46;;;;;;;51.17;28.93;;;3.00;99.90;;;;;;5000205;28;20171;-85
2022/12/05 00:55:11;;;;;;;43.43;27.43;;;2.90;99.90;;;;;;4997285;28;20174;-85
2022/12/05 00:57:37;;;;;;;57.10;31.17;;;2.90;99.90;;;;;;4994665;28;20186;-84
2022/12/05 01:00:05;;;;;;;49.50;31.27;;;3.00;99.90;;;;;;4996582;28;20318;-84
2022/12/05 01:02:30;;;;;;;50.53;28.80;;;3.00;99.90;;;;;;4997370;28;20709;-84
2022/12/05 01:04:56;;;;;;;50.07;28.67;;;3.00;99.90;;;;;;5001555;28;20175;-84
2022/12/05 01:07:21;;;;;;;52.03;30.23;;;3.00;99.90;;;;;;4998498;28;20175;-85
2022/12/05 01:09:48;;;;;;;53.43;31.67;;;3.10;99.90;;;;;;4995338;28;20685;-84
2022/12/05 01:12:14;;;;;;;52.90;28.97;;;3.10;99.90;;;;;;4998243;28;20255;-84
2022/12/05 01:14:40;;;;;;;52.33;27.60;;;3.10;99.90;;;;;;4998473;28;20210;-84
2022/12/05 01:17:06;;;;;;;50.83;27.47;;;3.10;99.90;;;;;;4995021;28;20654;-84
2022/12/05 01:19:32;;;;;;;51.03;28.70;;;3.10;99.90;;;;;;4979155;28;20261;-83
2022/12/05 01:21:58;;;;;;;49.00;28.17;;;3.00;99.90;;;;;;4979331;28;20544;-82
2022/12/05 01:24:25;;;;;;;47.07;27.90;;;3.10;99.90;;;;;;4996146;28;20171;-82
2022/12/05 01:26:51;;;;;;;44.40;27.80;;;3.00;99.90;;;;;;4996661;28;20167;-84
2022/12/05 01:29:20;;;;;;;50.40;28.45;;;3.00;99.90;;;;;;5003502;28;20159;-82
2022/12/05 01:31:47;;;;;;;46.30;28.17;;;3.00;99.90;;;;;;5018232;28;20163;-84
2022/12/05 01:34:14;;;;;;;47.23;28.47;;;3.00;99.90;;;;;;5002771;28;20166;-85
2022/12/05 01:36:40;;;;;;;48.20;27.20;;;3.00;99.90;;;;;;5014863;28;20170;-84
2022/12/05 01:39:12;;;;;;;49.07;26.50;;;3.10;99.90;;;;;;5005328;28;20265;-83
2022/12/05 01:41:44;;;;;;;47.47;28.03;;;3.00;99.90;;;;;;4995443;28;20572;-85
2022/12/05 01:44:11;;;;;;;47.23;26.83;;;3.10;99.90;;;;;;4990746;28;20202;-83
2022/12/05 01:46:42;;;;;;;51.37;28.63;;;3.10;99.90;;;;;;4995459;28;20514;-83
2022/12/05 01:49:30;;;;;;;51.47;29.00;;;3.10;99.90;;;;;;4994484;28;20269;-84
2022/12/05 01:52:00;;;;;;;49.07;27.23;;;3.20;99.90;;;;;;4995683;28;20191;-84
2022/12/05 01:54:26;;;;;;;46.10;28.00;;;3.30;99.90;;;;;;4994585;28;20171;-86
2022/12/05 01:57:01;;;;;;;50.80;28.40;;;3.10;99.90;;;;;;4996055;28;20201;-85
2022/12/05 01:59:30;;;;;;;48.87;28.73;;;3.10;99.90;;;;;;5004049;28;20194;-85
2022/12/05 02:01:56;;;;;;;50.97;29.17;;;3.30;99.90;;;;;;4999668;28;20179;-85
2022/12/05 02:04:26;;;;;;;58.03;31.20;;;3.30;99.90;;;;;;4998282;28;20213;-85
2022/12/05 02:06:52;;;;;;;48.33;28.10;;;3.20;99.90;;;;;;4995493;28;20304;-85
2022/12/05 02:09:18;;;;;;;45.17;27.87;;;3.20;99.90;;;;;;4978555;28;20167;-83
2022/12/05 02:11:53;;;;;;;51.27;28.50;;;3.20;99.90;;;;;;5000859;28;20167;-84
2022/12/05 02:14:43;;;;;;;51.60;30.13;;;3.20;99.90;;;;;;4980351;28;20205;-84
2022/12/05 02:17:14;;;;;;;54.27;25.93;;;3.30;99.90;;;;;;5013087;28;20182;-84
2022/12/05 02:19:49;;;;;;;52.83;29.30;;;3.20;99.90;;;;;;5016826;28;20294;-82
2022/12/05 02:22:28;;;;;;;51.80;28.47;;;3.20;99.90;;;;;;5002629;28;20182;-85
2022/12/05 02:25:16;;;;;;;51.00;28.80;;;3.20;99.90;;;;;;4999592;28;20550;-85
2022/12/05 02:28:08;;;;;;;56.80;30.60;;;3.20;99.90;;;;;;4997251;28;20635;-86
2022/12/05 02:30:44;;;;;;;53.17;30.60;;;3.20;99.90;;;;;;4997503;28;20207;-85
2022/12/05 02:33:23;;;;;;;51.50;30.17;;;3.40;99.90;;;;;;4996187;28;20257;-85
2022/12/05 02:36:14;;;;;;;56.60;29.70;;;3.30;99.90;;;;;;4995332;28;20171;-85
2022/12/05 02:38:45;;;;;;;52.17;28.87;;;3.20;99.90;;;;;;4994717;28;20178;-85
2022/12/05 02:41:32;;;;;;;55.43;29.33;;;3.20;99.90;;;;;;4977508;28;20174;-85
2022/12/05 02:44:13;;;;;;;56.07;31.37;;;3.20;99.90;;;;;;4994635;28;20171;-86
2022/12/05 02:46:40;;;;;;;58.00;30.37;;;3.30;99.90;;;;;;4995158;28;20290;-85
2022/12/05 02:49:14;;;;;;;61.90;31.67;;;3.40;99.90;;;;;;4996940;28;20235;-85
2022/12/05 02:51:52;;;;;;;54.47;30.07;;;3.30;99.90;;;;;;4999659;28;20214;-81
2022/12/05 02:54:26;;;;;;;59.13;30.27;;;3.30;99.90;;;;;;5001051;28;20230;-83
2022/12/05 02:56:53;;;;;;;53.93;28.37;;;3.20;99.90;;;;;;4994423;28;20643;-84
2022/12/05 02:59:19;;;;;;;58.47;31.77;;;3.20;99.90;;;;;;4994388;28;20193;-85
2022/12/05 03:01:46;;;;;;;58.70;30.20;;;3.20;99.90;;;;;;4994491;28;20166;-85
2022/12/05 03:04:13;;;;;;;62.53;30.13;;;3.30;99.90;;;;;;4994144;28;20177;-84
2022/12/05 03:06:43;;;;;;;61.67;29.37;;;3.30;99.90;;;;;;4994083;28;20606;-84
2022/12/05 03:09:24;;;;;;;61.93;31.53;;;3.30;99.90;;;;;;4993063;28;20170;-83
2022/12/05 03:12:21;;;;;;;61.37;31.47;;;3.30;99.90;;;;;;4994675;28;20265;-84
2022/12/05 03:14:56;;;;;;;58.40;31.13;;;3.30;99.90;;;;;;4994601;28;20564;-84
2022/12/05 03:17:27;;;;;;;54.63;30.67;;;3.40;99.90;;;;;;4993786;28;20257;-85
2022/12/05 03:20:13;;;;;;;60.83;31.43;;;3.30;99.90;;;;;;4993794;28;20245;-85
2022/12/05 03:22:50;;;;;;;58.97;31.17;;;3.30;99.90;;;;;;4993987;28;20175;-86
2022/12/05 03:25:16;;;;;;;58.13;29.97;;;3.30;99.90;;;;;;4976877;28;20690;-85
2022/12/05 03:28:07;;;;;;;57.87;30.63;;;3.30;99.90;;;;;;4994314;28;20166;-84
2022/12/05 03:30:36;;;;;;;53.27;29.90;;;3.40;99.90;;;;;;4974011;28;20282;-82
2022/12/05 03:33:12;;;;;;;54.27;31.33;;;3.30;99.90;;;;;;4993989;28;20170;-85
2022/12/05 03:35:40;;;;;;;58.00;30.50;;;3.30;99.90;;;;;;4993570;28;20229;-85
2022/12/05 03:38:18;;;;;;;54.40;30.73;;;3.40;99.90;;;;;;4994249;28;20194;-84
2022/12/05 03:40:55;;;;;;;55.40;30.63;;;3.40;99.90;;;;;;4993847;28;20217;-85
2022/12/05 03:43:27;;;;;;;58.50;31.23;;;3.30;99.90;;;;;;4995130;28;20171;-84
2022/12/05 03:46:02;;;;;;;55.87;30.23;;;3.40;99.90;;;;;;5005819;28;20202;-85
2022/12/05 03:48:37;;;;;;;53.90;29.80;;;3.50;99.90;;;;;;5005083;28;20182;-85
2022/12/05 03:51:06;;;;;;;51.90;28.10;;;3.30;99.90;;;;;;5000847;28;20332;-85
2022/12/05 03:53:37;;;;;;;55.13;29.77;;;3.30;99.90;;;;;;4994073;28;20178;-84
2022/12/05 03:56:11;;;;;;;49.43;28.37;;;3.20;99.90;;;;;;5006296;28;20170;-84
2022/12/05 03:58:47;;;;;;;50.77;29.93;;;3.20;99.90;;;;;;5018600;28;20186;-78
2022/12/05 04:01:15;;;;;;;50.20;26.23;;;3.30;99.90;;;;;;5021669;28;20185;-82
2022/12/05 04:03:50;;;;;;;47.60;27.60;;;3.20;99.90;;;;;;5020255;28;20155;-82
2022/12/05 04:06:27;;;;;;;49.67;26.57;;;3.20;99.90;;;;;;5000922;28;20162;-85
2022/12/05 04:09:01;;;;;;;48.53;29.00;;;3.30;99.90;;;;;;5000968;28;20159;-85
2022/12/05 04:11:33;;;;;;;48.80;27.57;;;3.30;99.90;;;;;;4997774;28;20207;-86
2022/12/05 04:14:07;;;;;;;48.77;26.93;;;3.30;99.90;;;;;;4997392;28;20187;-86
2022/12/05 04:22:28;;;;;;;45.37;25.50;;;3.30;99.90;;;;;;5000016;28;20197;-85
2022/12/05 04:28:05;;;;;;;45.93;26.80;;;3.20;99.90;;;;;;4997026;28;20186;-85
2022/12/05 04:30:41;;;;;;;46.07;26.30;;;3.40;99.90;;;;;;4997112;28;20203;-85
2022/12/05 04:33:11;;;;;;;42.30;24.17;;;3.20;99.90;;;;;;4997253;28;20174;-86
2022/12/05 04:36:13;;;;;;;40.57;23.70;;;3.20;99.90;;;;;;4980915;28;20175;-85
2022/12/05 04:38:58;;;;;;;39.30;20.97;;;3.30;99.90;;;;;;4963064;28;20232;-84
2022/12/05 04:41:31;;;;;;;38.23;22.30;;;3.20;99.90;;;;;;5005787;28;20253;-85
2022/12/05 04:44:02;;;;;;;40.70;23.77;;;3.20;99.90;;;;;;5001610;28;20175;-85
2022/12/05 04:46:27;;;;;;;39.00;22.77;;;3.20;99.90;;;;;;4998087;28;20174;-85
2022/12/05 04:48:59;;;;;;;40.03;24.00;;;3.20;99.90;;;;;;4997219;28;20669;-84
2022/12/05 04:51:28;;;;;;;38.27;23.63;;;3.10;99.90;;;;;;4997069;28;20717;-85
2022/12/05 04:53:57;;;;;;;39.60;24.03;;;3.30;99.90;;;;;;4999366;28;20159;-83
2022/12/05 04:56:28;;;;;;;41.73;23.77;;;3.20;99.90;;;;;;4997033;28;20167;-83
2022/12/05 04:58:54;;;;;;;46.13;26.40;;;3.10;99.90;;;;;;4997206;28;20167;-82
2022/12/05 05:01:23;;;;;;;40.83;24.73;;;3.20;99.90;;;;;;4997295;28;20175;-85
2022/12/05 05:04:13;;;;;;;41.63;23.93;;;3.20;99.90;;;;;;4996358;28;20178;-85
2022/12/05 05:06:39;;;;;;;42.90;25.67;;;3.20;99.90;;;;;;4996958;28;20171;-85
2022/12/05 05:09:05;;;;;;;48.47;26.30;;;3.20;99.90;;;;;;4996328;28;20171;-86
2022/12/05 05:11:34;;;;;;;46.43;28.20;;;3.30;99.90;;;;;;4995272;28;20298;-85
2022/12/05 05:14:00;;;;;;;41.33;25.23;;;3.30;99.90;;;;;;4996967;28;20189;-86
2022/12/05 05:16:27;;;;;;;42.20;27.20;;;3.30;99.90;;;;;;4979482;28;20175;-83
2022/12/05 05:18:53;;;;;;;47.43;28.23;;;3.30;99.90;;;;;;4995836;28;20175;-83
2022/12/05 05:21:23;;;;;;;49.87;26.77;;;3.30;99.90;;;;;;4996643;28;20535;-82
2022/12/05 05:23:48;;;;;;;43.90;26.43;;;3.30;99.90;;;;;;4995747;28;20179;-83
2022/12/05 05:26:14;;;;;;;46.07;26.73;;;3.30;99.90;;;;;;4999319;28;20167;-84
2022/12/05 05:28:40;;;;;;;43.70;27.37;;;3.30;99.90;;;;;;4998517;28;20175;-83
2022/12/05 05:31:06;;;;;;;44.37;28.13;;;3.20;99.90;;;;;;5002080;28;20234;-85
2022/12/05 05:33:33;;;;;;;45.97;27.07;;;3.30;99.90;;;;;;4995927;28;20203;-85
2022/12/05 05:36:03;;;;;;;51.23;28.70;;;3.40;99.90;;;;;;4996256;28;20193;-81
2022/12/05 05:38:29;;;;;;;47.63;29.07;;;3.30;99.90;;;;;;4994692;28;20233;-85
2022/12/05 05:40:54;;;;;;;47.67;28.43;;;3.40;99.90;;;;;;4994491;28;20587;-86
2022/12/05 05:43:20;;;;;;;47.00;27.87;;;3.40;99.90;;;;;;4994976;28;20171;-83
2022/12/05 05:45:46;;;;;;;45.83;28.63;;;3.40;99.90;;;;;;4996893;28;20655;-85
2022/12/05 05:48:11;;;;;;;46.00;27.50;;;3.50;99.90;;;;;;4997381;28;20642;-86
2022/12/05 05:50:37;;;;;;;45.03;27.77;;;3.50;99.90;;;;;;4997364;28;20219;-84
2022/12/05 05:53:02;;;;;;;49.33;26.80;;;3.60;99.90;;;;;;4996840;28;20182;-86
2022/12/05 05:55:28;;;;;;;45.37;28.37;;;3.70;99.90;;;;;;4995444;28;20175;-84
2022/12/05 05:57:54;;;;;;;45.17;26.97;;;3.50;99.90;;;;;;4994561;28;20189;-86
2022/12/05 06:00:20;;;;;;;48.20;27.60;;;3.40;99.90;;;;;;4995841;28;20241;-83
2022/12/05 06:02:45;;;;;;;52.50;27.83;;;3.40;99.90;;;;;;4996466;28;20198;-86
2022/12/05 06:05:11;;;;;;;55.67;29.77;;;3.40;99.90;;;;;;4998267;28;20186;-84
2022/12/05 06:07:40;;;;;;;52.10;28.57;;;3.70;99.90;;;;;;4997401;28;20483;-86
2022/12/05 06:10:06;;;;;;;49.10;28.30;;;3.60;99.90;;;;;;5016769;28;20203;-86
2022/12/05 06:12:31;;;;;;;48.20;28.20;;;3.60;99.90;;;;;;5014048;28;20202;-85
2022/12/05 06:14:57;;;;;;;45.30;27.73;;;3.70;99.90;;;;;;5004124;28;20171;-84
2022/12/05 06:17:23;;;;;;;47.40;29.10;;;3.60;99.90;;;;;;5003526;28;20650;-85
2022/12/05 06:19:52;;;;;;;46.60;27.50;;;3.70;99.90;;;;;;5004229;28;20227;-83
2022/12/05 06:22:55;;;;;;;44.47;27.53;;;3.60;99.90;;;;;;5014643;28;20164;-84
2022/12/05 06:25:21;;;;;;;42.00;24.57;;;3.50;99.90;;;;;;5001859;28;20246;-85
2022/12/05 06:27:50;;;;;;;39.37;23.73;;;3.60;99.90;;;;;;5016739;28;20194;-82
2022/12/05 06:30:22;;;;;;;43.07;26.20;;;3.50;99.90;;;;;;5015248;28;20258;-85
2022/12/05 06:32:50;;;;;;;44.03;27.13;;;3.50;99.90;;;;;;4992298;28;20626;-84
2022/12/05 06:35:18;;;;;;;47.50;25.33;;;3.50;99.90;;;;;;5000680;28;20195;-85
2022/12/05 06:37:45;;;;;;;46.80;27.50;;;3.60;99.90;;;;;;5002200;28;20232;-85
2022/12/05 06:40:22;;;;;;;43.43;27.47;;;3.60;99.90;;;;;;5003050;28;20273;-84
2022/12/05 06:42:47;;;;;;;42.30;26.90;;;3.60;99.90;;;;;;4996906;28;20170;-84
2022/12/05 06:45:13;;;;;;;46.57;27.43;;;3.70;99.90;;;;;;4998824;28;20182;-85
2022/12/05 06:47:39;;;;;;;49.23;27.73;;;3.70;99.90;;;;;;5000211;28;20340;-84
2022/12/05 06:50:08;;;;;;;49.50;29.10;;;3.80;99.90;;;;;;4991104;28;20589;-83
2022/12/05 06:52:35;;;;;;;45.77;27.93;;;3.70;99.90;;;;;;5001567;28;20647;-84
2022/12/05 06:55:03;;;;;;;44.73;28.70;;;3.90;99.90;;;;;;4999893;28;20159;-83
2022/12/05 06:57:30;;;;;;;47.63;28.20;;;3.70;99.90;;;;;;4982886;28;20526;-83
2022/12/05 07:02:41;;;;;;;45.63;27.17;;;3.70;99.90;;;;;;4998692;28;20177;-84
2022/12/05 07:05:08;;;;;;;46.17;27.97;;;3.70;99.90;;;;;;5000632;28;20194;-84
2022/12/05 07:07:34;;;;;;;50.67;26.20;;;3.70;99.90;;;;;;4986099;28;20189;-85
2022/12/05 07:10:00;;;;;;;47.20;25.73;;;3.80;99.90;;;;;;4968452;28;20214;-84
2022/12/05 07:12:28;;;;;;;43.27;25.93;;;3.90;99.90;;;;;;5002226;28;20230;-85
2022/12/05 07:14:54;;;;;;;42.57;26.77;;;3.70;99.90;;;;;;4988123;28;20159;-84
2022/12/05 07:17:21;;;;;;;48.00;26.93;;;3.80;99.90;;;;;;4985283;28;20193;-81
2022/12/05 07:19:50;;;;;;;46.03;28.53;;;3.90;99.90;;;;;;4983725;28;20194;-81
2022/12/05 07:22:23;;;;;;;43.17;25.43;;;4.00;99.90;;;;;;4984048;28;20247;-81
2022/12/05 07:24:53;;;;;;;41.80;25.17;;;4.10;99.90;;;;;;4985016;28;20258;-84
2022/12/05 07:27:22;;;;;;;41.47;25.57;;;4.10;99.90;;;;;;4982741;28;20206;-86
2022/12/05 07:29:47;;;;;;;39.27;25.37;;;4.00;99.90;;;;;;5001217;28;20237;-83
2022/12/05 07:32:14;;;;;;;45.20;26.83;;;3.90;99.90;;;;;;4999091;28;20581;-81
2022/12/05 07:34:41;;;;;;;37.87;25.23;;;4.00;99.90;;;;;;5001782;28;20206;-81
2022/12/05 07:37:07;;;;;;;39.73;24.43;;;4.00;99.90;;;;;;5003631;28;20175;-81
2022/12/05 07:39:34;;;;;;;44.93;25.90;;;3.90;99.90;;;;;;4989025;28;20195;-83
2022/12/05 07:41:59;;;;;;;44.13;26.13;;;4.00;99.90;;;;;;4988844;28;20283;-83
2022/12/05 07:44:25;;;;;;;40.17;25.20;;;3.90;99.90;;;;;;5005161;28;20159;-83
2022/12/05 07:46:51;;;;;;;39.77;24.57;;;3.90;99.90;;;;;;5004158;28;20229;-79
2022/12/05 07:49:16;;;;;;;46.37;28.33;;;4.00;99.90;;;;;;5002383;28;20190;-83
2022/12/05 07:51:42;;;;;;;43.83;26.00;;;4.10;99.90;;;;;;5006676;28;20210;-82
2022/12/05 07:54:09;;;;;;;43.73;25.80;;;4.00;99.90;;;;;;5003201;28;20199;-83
2022/12/05 07:56:35;;;;;;;46.50;27.20;;;4.10;99.90;;;;;;5003818;28;20263;-83
2022/12/05 07:59:01;;;;;;;46.23;27.23;;;4.10;99.90;;;;;;4987981;28;20210;-83
2022/12/05 08:01:29;;;;;;;45.37;26.80;;;4.20;99.90;;;;;;4986780;28;20296;-83
2022/12/05 08:04:01;;;;;;;41.63;25.37;;;4.10;99.90;;;;;;5005563;28;20163;-82
2022/12/05 08:06:29;;;;;;;45.43;26.03;;;4.20;99.90;;;;;;4987439;28;20186;-81
2022/12/05 08:08:55;;;;;;;41.63;26.03;;;4.20;99.90;;;;;;4999261;28;20175;-82
2022/12/05 08:11:23;;;;;;;45.70;26.07;;;4.10;99.90;;;;;;4991933;28;20230;-82
2022/12/05 08:13:57;;;;;;;42.70;27.10;;;4.00;99.90;;;;;;4984161;28;20303;-83
2022/12/05 08:16:26;;;;;;;44.17;26.70;;;4.10;99.90;;;;;;4983741;28;20659;-82
2022/12/05 08:18:56;;;;;;;43.93;25.23;;;4.10;99.90;;;;;;4978418;28;20167;-82
2022/12/05 08:21:24;;;;;;;41.67;25.90;;;4.00;99.90;;;;;;4984359;28;20176;-82
2022/12/05 08:23:52;;;;;;;42.70;25.90;;;4.00;99.90;;;;;;4990189;28;20160;-81
2022/12/05 08:26:29;;;;;;;42.60;24.80;;;4.10;99.90;;;;;;4966620;28;20708;-81
2022/12/05 08:28:59;;;;;;;37.70;24.53;;;4.20;99.90;;;;;;4981875;28;20176;-80
2022/12/05 08:31:27;;;;;;;40.80;24.50;;;4.00;99.90;;;;;;4964275;28;20210;-80
2022/12/05 08:33:56;;;;;;;41.63;26.17;;;4.10;99.90;;;;;;4980735;28;20164;-80
2022/12/05 08:36:21;;;;;;;40.23;24.40;;;4.00;99.90;;;;;;4983938;28;20227;-83
2022/12/05 08:38:54;;;;;;;38.53;24.67;;;4.00;99.90;;;;;;4982026;28;20171;-80
2022/12/05 08:41:19;;;;;;;39.67;23.80;;;4.00;99.90;;;;;;4962777;28;20174;-80
2022/12/05 08:43:45;;;;;;;36.90;22.87;;;4.00;99.90;;;;;;4978293;28;20175;-80
2022/12/05 08:46:11;;;;;;;33.43;21.77;;;3.90;99.90;;;;;;4980351;28;20171;-82
2022/12/05 08:48:38;;;;;;;33.77;21.17;;;4.00;99.90;;;;;;4980598;28;20636;-79
2022/12/05 08:51:07;;;;;;;31.80;21.47;;;3.80;99.90;;;;;;4984032;28;20215;-81
2022/12/05 08:53:35;;;;;;;33.03;21.30;;;3.90;99.90;;;;;;4985040;28;20195;-83
2022/12/05 08:56:06;;;;;;;32.90;21.13;;;4.00;99.90;;;;;;4999165;28;20152;-81
2022/12/05 08:58:32;;;;;;;33.80;21.30;;;3.90;99.90;;;;;;4999806;28;20176;-81
2022/12/05 09:01:40;;;;;;;31.60;21.53;;;4.10;99.90;;;;;;4995235;28;20215;-81
2022/12/05 09:04:11;;;;;;;35.20;21.30;;;4.00;99.90;;;;;;4985143;28;20663;-81
2022/12/05 09:06:46;;;;;;;38.13;21.60;;;4.00;99.90;;;;;;4996320;28;20162;-82
2022/12/05 09:09:12;;;;;;;31.73;21.20;;;4.00;99.90;;;;;;4995665;28;20730;-81
2022/12/05 09:11:47;;;;;;;31.80;21.13;;;4.00;99.90;;;;;;4995641;28;20297;-81
2022/12/05 09:14:14;;;;;;;31.63;20.70;;;3.90;99.90;;;;;;4995551;28;20186;-81
2022/12/05 09:16:40;;;;;;;31.83;20.43;;;4.00;99.90;;;;;;4994436;28;20179;-81
2022/12/05 09:19:15;;;;;;;31.17;20.47;;;4.00;99.90;;;;;;4995315;28;20632;-80
2022/12/05 09:21:42;;;;;;;26.73;19.27;;;4.10;99.90;;;;;;4995472;28;20639;-81
2022/12/05 09:24:10;;;;;;;29.87;20.00;;;4.20;99.90;;;;;;4989028;28;20191;-81
2022/12/05 09:26:36;;;;;;;29.00;18.63;;;4.10;99.90;;;;;;4981662;28;20186;-80
2022/12/05 09:29:02;;;;;;;29.93;19.57;;;4.10;99.90;;;;;;4975574;28;20175;-82
2022/12/05 09:31:29;;;;;;;24.70;17.77;;;4.30;99.90;;;;;;4976084;28;20203;-81
2022/12/05 09:33:55;;;;;;;24.43;17.37;;;4.10;99.90;;;;;;4975831;28;20530;-81
2022/12/05 09:36:23;;;;;;;25.27;17.93;;;4.20;99.90;;;;;;4992872;28;20179;-81
2022/12/05 09:38:51;;;;;;;24.63;17.80;;;4.20;99.90;;;;;;4994704;28;20511;-81
2022/12/05 09:44:42;;;;;;;24.50;16.70;;;4.30;99.90;;;;;;5016586;28;20189;-82
2022/12/05 09:47:43;;;;;;;25.77;16.70;;;4.30;99.90;;;;;;5017703;28;20198;-80
2022/12/05 09:50:28;;;;;;;23.13;16.17;;;4.40;99.90;;;;;;4999145;28;20207;-82
2022/12/05 09:52:57;;;;;;;21.80;15.97;;;4.30;99.90;;;;;;4996236;28;20178;-83
2022/12/05 09:55:26;;;;;;;22.97;16.47;;;4.30;99.90;;;;;;4993677;28;20517;-83
2022/12/05 09:58:01;;;;;;;19.37;14.53;;;4.40;99.90;;;;;;4993393;28;20663;-83
2022/12/05 10:00:29;;;;;;;20.60;15.30;;;4.40;99.90;;;;;;4994763;28;20178;-81
2022/12/05 10:03:19;;;;;;;22.80;16.10;;;4.40;99.90;;;;;;4993451;28;20608;-83
2022/12/05 10:06:00;;;;;;;21.73;15.80;;;4.40;99.90;;;;;;4996079;28;20217;-81
2022/12/05 10:08:34;;;;;;;19.97;14.90;;;4.50;99.90;;;;;;4995149;28;20183;-82
2022/12/05 10:11:03;;;;;;;21.03;15.33;;;4.50;99.90;;;;;;4995952;28;20204;-82
2022/12/05 10:14:02;;;;;;;21.03;14.80;;;4.50;99.90;;;;;;4994323;28;20179;-82
2022/12/05 10:16:42;;;;;;;23.00;15.23;;;4.50;99.90;;;;;;4980909;28;20174;-83
2022/12/05 10:19:17;;;;;;;21.17;15.90;;;4.50;99.90;;;;;;4967448;28;20188;-81
2022/12/05 10:22:03;;;;;;;21.80;14.57;;;4.70;99.90;;;;;;4997568;28;20186;-81
2022/12/05 10:24:37;;;;;;;18.57;14.27;;;4.70;99.90;;;;;;4983187;28;20189;-80
2022/12/05 10:27:16;;;;;;;19.57;14.43;;;4.60;99.90;;;;;;5006146;28;20170;-82
2022/12/05 10:30:09;;;;;;;19.17;13.63;;;4.60;99.90;;;;;;4987578;28;20767;-82
2022/12/05 10:33:01;;;;;;;20.20;13.77;;;4.50;99.90;;;;;;5004054;28;20285;-82
2022/12/05 10:35:33;;;;;;;17.53;14.03;;;4.30;99.90;;;;;;4988358;28;20701;-81
2022/12/05 10:38:05;;;;;;;19.63;14.67;;;4.50;99.90;;;;;;4972689;28;20187;-81
2022/12/05 10:40:37;;;;;;;21.47;15.70;;;4.50;99.90;;;;;;5007011;28;20194;-81
2022/12/05 10:43:04;;;;;;;19.20;14.57;;;4.50;99.90;;;;;;4990970;28;20662;-82
2022/12/05 10:45:31;;;;;;;18.50;14.43;;;4.50;99.90;;;;;;5004652;28;20194;-81
2022/12/05 10:47:57;;;;;;;18.57;13.17;;;4.60;99.90;;;;;;5008699;28;20175;-81
2022/12/05 10:50:32;;;;;;;18.07;12.80;;;4.60;99.90;;;;;;5006998;28;20203;-84
2022/12/05 10:53:00;;;;;;;16.57;12.43;;;4.50;99.90;;;;;;5014051;28;20157;-83
2022/12/05 10:55:42;;;;;;;18.67;14.50;;;4.40;99.90;;;;;;4998173;28;20190;-83
2022/12/05 10:58:23;;;;;;;18.50;12.70;;;4.50;99.90;;;;;;4979341;28;20178;-82
2022/12/05 11:01:16;;;;;;;16.53;13.00;;;4.50;99.90;;;;;;4995249;28;20171;-82
2022/12/05 11:03:42;;;;;;;17.77;12.60;;;4.50;99.90;;;;;;4974652;28;20179;-81
2022/12/05 11:06:27;;;;;;;18.77;14.67;;;4.50;99.90;;;;;;4996358;28;20175;-81
2022/12/05 11:08:55;;;;;;;21.37;15.13;;;4.50;99.90;;;;;;5000167;28;20194;-80
2022/12/05 11:11:28;;;;;;;16.83;13.80;;;4.30;99.90;;;;;;4970372;28;20265;-82
2022/12/05 11:14:00;;;;;;;15.13;11.90;;;4.60;99.90;;;;;;5002964;28;20214;-82
2022/12/05 11:16:31;;;;;;;15.60;12.10;;;4.50;99.90;;;;;;5013522;28;20175;-81
2022/12/05 11:19:19;;;;;;;15.80;12.27;;;4.30;99.90;;;;;;5022123;28;20151;-82
2022/12/05 11:21:46;;;;;;;18.37;12.90;;;4.30;99.90;;;;;;5021577;28;20159;-81
2022/12/05 11:24:21;;;;;;;14.20;11.37;;;4.30;99.90;;;;;;5018702;28;20262;-82
2022/12/05 11:26:48;;;;;;;16.40;12.77;;;4.30;99.90;;;;;;5004337;28;20193;-83
2022/12/05 11:29:40;;;;;;;15.40;11.97;;;4.30;99.90;;;;;;5005099;28;20206;-83
2022/12/05 11:32:17;;;;;;;15.20;12.20;;;4.40;99.90;;;;;;4978103;28;20197;-84
2022/12/05 11:35:08;;;;;;;13.40;10.63;;;4.50;99.90;;;;;;5000713;28;20166;-84
2022/12/05 11:37:48;;;;;;;15.93;12.33;;;4.60;99.90;;;;;;4999022;28;20179;-84
2022/12/05 11:40:24;;;;;;;14.93;11.90;;;4.60;99.90;;;;;;4998965;28;20241;-83
2022/12/05 11:42:58;;;;;;;18.60;13.57;;;4.50;99.90;;;;;;5007474;28;20978;-82
2022/12/05 11:45:48;;;;;;;19.07;12.83;;;4.60;99.90;;;;;;5004050;28;20167;-82
2022/12/05 11:48:24;;;;;;;15.03;11.50;;;4.60;99.90;;;;;;4999902;28;20174;-84
2022/12/05 11:51:21;;;;;;;15.97;11.73;;;4.60;99.90;;;;;;5001340;28;20566;-80
2022/12/05 11:54:10;;;;;;;14.00;10.37;;;4.60;99.90;;;;;;4999572;28;20652;-80
2022/12/05 11:56:37;;;;;;;16.73;11.83;;;4.70;99.90;;;;;;4998410;28;20674;-80
2022/12/05 11:59:27;;;;;;;16.10;12.10;;;4.60;99.90;;;;;;5000665;28;20206;-81
2022/12/05 12:02:16;;;;;;;15.20;12.10;;;4.70;99.90;;;;;;4964695;28;20183;-82
2022/12/05 12:04:48;;;;;;;17.80;12.83;;;4.60;99.90;;;;;;4982579;28;20717;-81
2022/12/05 12:07:35;;;;;;;15.70;12.47;;;4.80;99.90;;;;;;4985293;28;20275;-83
2022/12/05 12:10:24;;;;;;;17.27;12.67;;;4.70;99.90;;;;;;4979086;28;20561;-83
2022/12/05 12:12:56;;;;;;;17.20;12.67;;;4.70;99.90;;;;;;4988648;28;20192;-82
2022/12/05 12:15:36;;;;;;;17.00;13.00;;;4.70;99.90;;;;;;4983110;28;20192;-84
2022/12/05 12:18:20;;;;;;;15.47;12.53;;;4.60;99.90;;;;;;4983019;28;20179;-83
2022/12/05 12:21:07;;;;;;;15.07;12.70;;;4.70;99.90;;;;;;4981574;28;20210;-81
2022/12/05 12:23:37;;;;;;;18.37;13.93;;;4.60;99.90;;;;;;4980568;28;20202;-84
2022/12/05 12:26:06;;;;;;;18.43;14.43;;;4.60;99.90;;;;;;4984409;28;20207;-85
2022/12/05 12:28:45;;;;;;;16.93;13.10;;;4.70;99.90;;;;;;4990684;28;20168;-83
2022/12/05 12:31:22;;;;;;;18.03;14.17;;;4.70;99.90;;;;;;4998326;28;20241;-82
2022/12/05 12:34:03;;;;;;;16.33;13.37;;;4.70;99.90;;;;;;5000591;28;20179;-83
2022/12/05 12:37:19;;;;;;;16.47;12.93;;;4.70;99.90;;;;;;4991531;28;20214;-82
2022/12/05 12:40:37;;;;;;;20.50;13.93;;;4.80;99.90;;;;;;4981264;28;20204;-81
2022/12/05 12:43:19;;;;;;;19.27;14.50;;;4.70;99.90;;;;;;4979831;28;20263;-83
2022/12/05 12:46:06;;;;;;;20.07;15.93;;;4.80;99.90;;;;;;4979775;28;20179;-82
2022/12/05 12:48:57;;;;;;;17.30;13.70;;;4.90;99.90;;;;;;4979171;28;20180;-83
2022/12/05 12:51:25;;;;;;;17.77;14.03;;;4.80;99.90;;;;;;4983042;28;20211;-82
2022/12/05 12:54:48;;;;;;;18.53;14.60;;;4.70;99.90;;;;;;4982589;28;20672;-82
2022/12/05 12:57:39;;;;;;;19.90;14.93;;;4.80;99.90;;;;;;4965949;28;20220;-83
2022/12/05 13:00:35;;;;;;;19.37;15.53;;;4.80;99.90;;;;;;4959465;28;20191;-84
2022/12/05 13:03:26;;;;;;;19.73;15.67;;;4.90;99.90;;;;;;4970822;28;20294;-85
2022/12/05 13:06:46;;;;;;;20.10;12.00;;;4.90;99.90;;;;;;4976949;28;20172;-83
2022/12/05 13:09:21;;;;;;;14.77;11.97;;;4.80;99.90;;;;;;4992810;28;20247;-84
2022/12/05 13:11:48;;;;;;;16.33;12.90;;;4.70;99.90;;;;;;4999618;28;20203;-83
2022/12/05 13:14:19;;;;;;;18.30;13.97;;;4.70;99.90;;;;;;4996836;28;20204;-82
2022/12/05 13:17:14;;;;;;;16.73;13.30;;;4.70;99.90;;;;;;4993297;28;20164;-82
2022/12/05 13:20:12;;;;;;;15.87;12.83;;;4.80;99.90;;;;;;4977170;28;20419;-82